Time;durP1;ratioP1;P1;durP2;ratioP2;P2;SDS_P1;SDS_P2;PMS_P1;PMS_P2;Temp;Humidity;BMP_temperature;BMP_pressure;BME280_temperature;BME280_humidity;BME280_pressure;Samples;Min_cycle;Max_cycle;Signal;HPM_P1;HPM_P2
2024/04/06 00:01:13;;;;;;;13.38;3.42;;;11.20;99.90;;;;;;5028676;28;20064;-81
2024/04/06 00:03:39;;;;;;;13.45;3.90;;;11.20;99.90;;;;;;5036747;28;20029;-81
2024/04/06 00:06:04;;;;;;;14.02;3.50;;;11.20;99.90;;;;;;5032295;28;20034;-80
2024/04/06 00:08:30;;;;;;;14.60;3.88;;;11.00;99.90;;;;;;5033441;28;20096;-81
2024/04/06 00:10:55;;;;;;;13.38;3.50;;;11.00;99.90;;;;;;5047954;28;20041;-81
2024/04/06 00:13:21;;;;;;;13.05;4.75;;;10.90;99.90;;;;;;5033954;28;20037;-82
2024/04/06 00:15:47;;;;;;;15.52;2.97;;;10.80;99.90;;;;;;5033987;28;20037;-80
2024/04/06 00:18:12;;;;;;;14.85;4.57;;;10.80;99.90;;;;;;5033629;28;20068;-81
2024/04/06 00:20:38;;;;;;;12.18;3.78;;;11.70;99.90;;;;;;5037177;28;20041;-81
2024/04/06 00:23:03;;;;;;;16.17;4.15;;;10.60;99.90;;;;;;5029334;28;20518;-82
2024/04/06 00:25:29;;;;;;;15.32;3.95;;;10.60;99.90;;;;;;5030652;28;20042;-81
2024/04/06 00:27:55;;;;;;;9.98;3.50;;;10.60;99.90;;;;;;5012666;28;20041;-80
2024/04/06 00:30:20;;;;;;;15.10;3.97;;;10.60;99.90;;;;;;5031421;28;20041;-81
2024/04/06 00:32:46;;;;;;;12.07;3.92;;;10.60;99.90;;;;;;5046878;28;20064;-81
2024/04/06 00:35:11;;;;;;;18.60;5.53;;;10.60;99.90;;;;;;5035370;28;20083;-80
2024/04/06 00:37:37;;;;;;;10.73;4.40;;;10.60;99.90;;;;;;5034086;28;20102;-81
2024/04/06 00:40:03;;;;;;;11.88;4.35;;;10.70;99.90;;;;;;5036944;28;20408;-81
2024/04/06 00:42:29;;;;;;;17.50;3.88;;;10.70;99.90;;;;;;5034296;28;20092;-80
2024/04/06 00:44:55;;;;;;;14.73;4.32;;;10.70;99.90;;;;;;5035480;28;21682;-80
2024/04/06 00:47:20;;;;;;;10.52;4.03;;;10.70;99.90;;;;;;5032219;28;20053;-81
2024/04/06 00:49:46;;;;;;;13.57;4.65;;;10.80;99.90;;;;;;5034778;28;20037;-80
2024/04/06 00:52:12;;;;;;;13.73;3.92;;;10.80;99.90;;;;;;5035397;28;20076;-80
2024/04/06 00:54:38;;;;;;;15.32;4.10;;;10.80;99.90;;;;;;5031713;28;20056;-80
2024/04/06 00:57:07;;;;;;;15.80;4.03;;;11.80;99.90;;;;;;5033726;28;20099;-80
2024/04/06 00:59:34;;;;;;;15.82;5.43;;;10.90;99.90;;;;;;5033114;28;20043;-79
2024/04/06 01:02:00;;;;;;;16.15;4.30;;;10.90;99.90;;;;;;5031999;28;20090;-80
2024/04/06 01:04:25;;;;;;;10.85;3.88;;;10.90;99.90;;;;;;5035620;28;20069;-82
2024/04/06 01:06:51;;;;;;;13.52;5.35;;;11.00;99.90;;;;;;5032589;28;20054;-81
2024/04/06 01:09:16;;;;;;;13.57;4.45;;;11.00;99.90;;;;;;5032423;28;20048;-80
2024/04/06 01:11:42;;;;;;;16.30;4.72;;;11.00;99.90;;;;;;5034958;28;20078;-80
2024/04/06 01:14:07;;;;;;;13.27;3.97;;;11.00;99.90;;;;;;5033024;28;20500;-82
2024/04/06 01:16:34;;;;;;;17.17;4.25;;;11.10;99.90;;;;;;5036146;28;20056;-80
2024/04/06 01:18:59;;;;;;;17.48;4.22;;;11.00;99.90;;;;;;5050037;28;20033;-80
2024/04/06 01:21:26;;;;;;;15.25;3.58;;;11.10;99.90;;;;;;5036136;28;20030;-81
2024/04/06 01:23:53;;;;;;;11.15;4.45;;;11.10;99.90;;;;;;5021881;28;20042;-81
2024/04/06 01:26:22;;;;;;;11.27;3.42;;;11.10;99.90;;;;;;5037164;28;20037;-80
2024/04/06 01:28:49;;;;;;;13.77;4.18;;;11.10;99.90;;;;;;5027592;28;20038;-80
2024/04/06 01:31:15;;;;;;;15.57;4.22;;;11.10;99.90;;;;;;5033416;28;20049;-80
2024/04/06 01:33:40;;;;;;;17.77;4.85;;;11.10;99.90;;;;;;5032251;28;20053;-81
2024/04/06 01:36:07;;;;;;;14.43;4.30;;;11.20;99.90;;;;;;5034706;28;20039;-82
2024/04/06 01:38:33;;;;;;;16.00;4.20;;;11.10;99.90;;;;;;5033957;28;20045;-81
2024/04/06 01:41:01;;;;;;;16.73;4.40;;;11.20;99.90;;;;;;5031951;28;20042;-81
2024/04/06 01:43:27;;;;;;;11.48;4.03;;;11.20;99.90;;;;;;5030858;28;20527;-81
2024/04/06 01:45:52;;;;;;;13.02;4.20;;;11.10;99.90;;;;;;5037857;28;20042;-81
2024/04/06 01:48:18;;;;;;;16.65;4.63;;;11.10;99.90;;;;;;5031464;28;20056;-81
2024/04/06 01:50:43;;;;;;;13.73;3.70;;;12.00;99.90;;;;;;5032369;28;20034;-80
2024/04/06 01:53:09;;;;;;;9.60;4.00;;;11.10;99.90;;;;;;5037194;28;20156;-81
2024/04/06 01:55:35;;;;;;;21.33;4.85;;;11.10;99.90;;;;;;5045961;28;20397;-81
2024/04/06 01:58:00;;;;;;;16.67;4.20;;;11.90;99.90;;;;;;5025679;28;20036;-81
2024/04/06 02:00:26;;;;;;;13.40;3.67;;;11.10;99.90;;;;;;5034997;28;20042;-81
2024/04/06 02:02:51;;;;;;;16.70;4.10;;;11.10;99.90;;;;;;5015079;28;20120;-80
2024/04/06 02:05:17;;;;;;;17.92;4.35;;;11.10;99.90;;;;;;5034379;28;20037;-80
2024/04/06 02:07:42;;;;;;;15.10;4.68;;;11.10;99.90;;;;;;5027842;28;20104;-81
2024/04/06 02:10:08;;;;;;;13.88;3.95;;;11.10;99.90;;;;;;5026728;28;20042;-80
2024/04/06 02:12:33;;;;;;;15.43;4.32;;;11.10;99.90;;;;;;5032651;28;20041;-80
2024/04/06 02:14:59;;;;;;;10.38;3.85;;;11.10;99.90;;;;;;5018365;28;20041;-80
2024/04/06 02:17:24;;;;;;;17.83;4.47;;;11.10;99.90;;;;;;5025364;28;20045;-80
2024/04/06 02:19:50;;;;;;;13.90;3.97;;;11.20;99.90;;;;;;5023158;28;20038;-80
2024/04/06 02:22:16;;;;;;;13.40;4.70;;;11.10;99.90;;;;;;5027124;28;20120;-80
2024/04/06 02:24:41;;;;;;;15.35;4.90;;;11.20;99.90;;;;;;5026817;28;20033;-80
2024/04/06 02:27:07;;;;;;;11.75;4.15;;;11.20;99.90;;;;;;5029104;28;20148;-80
2024/04/06 02:29:33;;;;;;;14.68;4.80;;;11.20;99.90;;;;;;5033299;28;20049;-80
2024/04/06 02:31:59;;;;;;;23.33;4.63;;;11.20;99.90;;;;;;5028822;28;20374;-81
2024/04/06 02:34:24;;;;;;;13.73;4.45;;;12.00;99.90;;;;;;5030853;28;20033;-80
2024/04/06 02:36:50;;;;;;;11.60;4.43;;;11.20;99.90;;;;;;5011083;28;20124;-81
2024/04/06 02:39:15;;;;;;;12.20;4.18;;;11.20;99.90;;;;;;5015532;28;20114;-82
2024/04/06 02:41:41;;;;;;;13.45;3.90;;;11.20;99.90;;;;;;5014696;28;20041;-80
2024/04/06 02:44:07;;;;;;;15.07;5.38;;;11.30;99.90;;;;;;5027113;28;20485;-80
2024/04/06 02:46:33;;;;;;;13.98;4.57;;;11.20;99.90;;;;;;5013670;28;20126;-80
2024/04/06 02:48:59;;;;;;;9.98;4.13;;;12.20;99.90;;;;;;5028998;28;20401;-80
2024/04/06 02:51:25;;;;;;;14.93;4.25;;;11.20;99.90;;;;;;5029257;28;20124;-80
2024/04/06 02:53:51;;;;;;;13.07;4.40;;;11.10;99.90;;;;;;5031989;28;20037;-82
2024/04/06 02:56:16;;;;;;;13.10;4.72;;;11.10;99.90;;;;;;5030660;28;20033;-81
2024/04/06 02:58:42;;;;;;;12.57;4.68;;;11.10;99.90;;;;;;5025781;28;20477;-80
2024/04/06 03:01:08;;;;;;;12.25;4.03;;;11.00;99.90;;;;;;5027083;28;20052;-80
2024/04/06 03:03:34;;;;;;;16.70;4.82;;;11.10;99.90;;;;;;5046223;28;20120;-80
2024/04/06 03:06:00;;;;;;;16.13;4.32;;;11.10;99.90;;;;;;5034821;28;20033;-80
2024/04/06 03:08:26;;;;;;;11.38;4.50;;;11.00;99.90;;;;;;5027795;28;20707;-81
2024/04/06 03:10:52;;;;;;;15.65;3.83;;;11.00;99.90;;;;;;5012171;28;20126;-80
2024/04/06 03:13:19;;;;;;;11.27;4.25;;;11.00;99.90;;;;;;5015063;28;20061;-80
2024/04/06 03:15:45;;;;;;;11.55;4.28;;;11.00;99.90;;;;;;5025919;28;20038;-80
2024/04/06 03:18:12;;;;;;;14.48;4.10;;;11.00;99.90;;;;;;5036095;28;20703;-80
2024/04/06 03:20:38;;;;;;;15.90;4.47;;;11.80;99.90;;;;;;5027730;28;20048;-80
2024/04/06 03:23:05;;;;;;;13.10;4.15;;;11.50;99.90;;;;;;5035806;28;20132;-80
2024/04/06 03:25:32;;;;;;;13.55;3.70;;;11.00;99.90;;;;;;5004782;28;20049;-80
2024/04/06 03:27:58;;;;;;;13.05;4.30;;;10.90;99.90;;;;;;5012882;28;20100;-81
2024/04/06 03:30:25;;;;;;;13.45;4.45;;;10.90;99.90;;;;;;5033913;28;20060;-80
2024/04/06 03:32:51;;;;;;;14.57;4.65;;;10.90;99.90;;;;;;5013167;28;20041;-80
2024/04/06 03:35:18;;;;;;;14.93;5.40;;;11.00;99.90;;;;;;5023052;28;20057;-81
2024/04/06 03:37:47;;;;;;;18.73;5.22;;;11.00;99.90;;;;;;5025078;28;20033;-81
2024/04/06 03:40:13;;;;;;;15.93;5.60;;;11.10;99.90;;;;;;5027117;28;20046;-80
2024/04/06 03:42:39;;;;;;;13.75;4.38;;;10.90;99.90;;;;;;5012989;28;20038;-80
2024/04/06 03:45:05;;;;;;;13.27;4.78;;;10.80;99.90;;;;;;5012764;28;20394;-81
2024/04/06 03:47:31;;;;;;;13.18;4.55;;;10.70;99.90;;;;;;5030302;28;20064;-80
2024/04/06 03:49:57;;;;;;;12.75;4.45;;;10.70;99.90;;;;;;5030053;28;20116;-80
2024/04/06 03:52:24;;;;;;;12.52;5.07;;;11.80;99.90;;;;;;5031401;28;20104;-80
2024/04/06 03:54:50;;;;;;;12.38;5.22;;;10.70;99.90;;;;;;5034524;28;20033;-80
2024/04/06 03:57:15;;;;;;;16.98;5.90;;;10.80;99.90;;;;;;5028389;28;20041;-81
2024/04/06 03:59:41;;;;;;;13.77;4.97;;;10.90;99.90;;;;;;5011296;28;20052;-80
2024/04/06 04:02:07;;;;;;;13.02;5.88;;;11.60;99.90;;;;;;5015920;28;20120;-80
2024/04/06 04:04:32;;;;;;;11.90;5.10;;;12.00;99.90;;;;;;5021895;28;20045;-80
2024/04/06 04:06:58;;;;;;;15.32;6.88;;;12.20;99.90;;;;;;5021278;28;20037;-82
2024/04/06 04:09:23;;;;;;;13.23;6.28;;;12.10;99.90;;;;;;5025782;28;20060;-81
2024/04/06 04:11:50;;;;;;;15.45;6.45;;;11.10;99.90;;;;;;5034116;28;20033;-81
2024/04/06 04:14:16;;;;;;;18.50;7.43;;;11.10;99.90;;;;;;5027109;28;20049;-81
2024/04/06 04:16:41;;;;;;;19.48;6.85;;;11.20;99.90;;;;;;5031048;28;20050;-80
2024/04/06 04:19:07;;;;;;;15.63;7.68;;;11.20;99.90;;;;;;5028824;28;20458;-81
2024/04/06 04:21:33;;;;;;;15.32;7.38;;;11.20;99.90;;;;;;5019292;28;20519;-81
2024/04/06 04:23:58;;;;;;;17.33;8.20;;;11.30;99.90;;;;;;5033809;28;20159;-81
2024/04/06 04:26:24;;;;;;;13.63;7.28;;;11.30;99.90;;;;;;5014865;28;20056;-80
2024/04/06 04:28:50;;;;;;;14.80;8.65;;;11.30;99.90;;;;;;5031846;28;20472;-79
2024/04/06 04:31:17;;;;;;;12.98;8.13;;;12.20;99.90;;;;;;5036544;28;20096;-80
2024/04/06 04:33:43;;;;;;;16.35;8.05;;;12.00;99.90;;;;;;5037535;28;20052;-81
2024/04/06 04:36:10;;;;;;;21.60;9.50;;;11.30;99.90;;;;;;5037054;28;20638;-81
2024/04/06 04:38:36;;;;;;;20.77;8.73;;;11.30;99.90;;;;;;5033619;28;20052;-80
2024/04/06 04:41:02;;;;;;;18.63;8.57;;;11.40;99.90;;;;;;5033936;28;20041;-81
2024/04/06 04:43:28;;;;;;;17.02;8.57;;;11.40;99.90;;;;;;5028290;28;20084;-79
2024/04/06 04:45:54;;;;;;;17.88;9.60;;;11.50;99.90;;;;;;5027599;28;20042;-80
2024/04/06 04:48:19;;;;;;;18.10;9.30;;;11.50;99.90;;;;;;5049905;28;20041;-81
2024/04/06 04:50:45;;;;;;;18.17;8.73;;;11.50;99.90;;;;;;5026317;28;20038;-81
2024/04/06 04:53:10;;;;;;;17.98;9.02;;;12.00;99.90;;;;;;5048151;28;20046;-80
2024/04/06 04:55:37;;;;;;;16.40;9.70;;;12.30;99.90;;;;;;5028614;28;20069;-80
2024/04/06 04:58:03;;;;;;;13.88;9.40;;;11.50;99.90;;;;;;5026745;28;20404;-80
2024/04/06 05:00:29;;;;;;;20.50;10.85;;;11.50;99.90;;;;;;5014962;28;20049;-80
2024/04/06 05:02:55;;;;;;;20.05;10.40;;;11.60;99.90;;;;;;5017307;28;20543;-80
2024/04/06 05:05:21;;;;;;;23.00;10.88;;;11.50;99.90;;;;;;5030918;28;20339;-80
2024/04/06 05:07:46;;;;;;;20.77;10.82;;;11.60;99.90;;;;;;5012966;28;20026;-81
2024/04/06 05:10:13;;;;;;;18.25;10.25;;;11.60;99.90;;;;;;5030761;28;20097;-81
2024/04/06 05:12:38;;;;;;;17.27;11.18;;;11.60;99.90;;;;;;5020376;28;20033;-80
2024/04/06 05:15:04;;;;;;;18.55;11.45;;;11.70;99.90;;;;;;5049990;28;20076;-81
2024/04/06 05:17:30;;;;;;;18.80;11.60;;;11.70;99.90;;;;;;5028972;28;20493;-81
2024/04/06 05:19:55;;;;;;;19.52;11.48;;;12.40;99.90;;;;;;5014871;28;20075;-80
2024/04/06 05:22:21;;;;;;;18.80;11.50;;;12.90;99.90;;;;;;5030098;28;20519;-80
2024/04/06 05:24:47;;;;;;;15.30;10.52;;;11.90;99.90;;;;;;5026852;28;20041;-81
2024/04/06 05:27:12;;;;;;;18.10;11.48;;;11.90;99.90;;;;;;5028543;28;20124;-81
2024/04/06 05:29:38;;;;;;;16.30;11.57;;;12.00;99.90;;;;;;5030642;28;20568;-80
2024/04/06 05:32:04;;;;;;;17.77;10.60;;;12.00;99.90;;;;;;5027452;28;20043;-80
2024/04/06 05:34:30;;;;;;;13.93;10.32;;;12.10;99.90;;;;;;5031182;28;20504;-80
2024/04/06 05:36:56;;;;;;;14.13;10.27;;;12.10;99.90;;;;;;5033570;28;20037;-81
2024/04/06 05:39:21;;;;;;;16.42;9.95;;;13.00;99.90;;;;;;5013221;28;20041;-81
2024/04/06 05:41:47;;;;;;;13.88;10.05;;;12.20;99.90;;;;;;5031942;28;20598;-80
2024/04/06 05:44:13;;;;;;;17.73;10.25;;;12.20;99.90;;;;;;5019777;28;20409;-80
2024/04/06 05:46:39;;;;;;;14.73;8.77;;;12.30;99.90;;;;;;5029699;28;20124;-80
2024/04/06 05:49:07;;;;;;;14.23;9.02;;;12.30;99.90;;;;;;5029730;28;20044;-80
2024/04/06 05:51:33;;;;;;;12.52;8.60;;;12.40;99.90;;;;;;5027969;28;20088;-81
2024/04/06 05:54:00;;;;;;;14.40;8.25;;;12.40;99.90;;;;;;5032977;28;20104;-81
2024/04/06 05:56:26;;;;;;;16.30;9.35;;;13.40;99.90;;;;;;5042111;28;20038;-80
2024/04/06 05:58:52;;;;;;;13.70;9.25;;;12.40;99.90;;;;;;5032384;28;20034;-80
2024/04/06 06:01:17;;;;;;;13.98;8.60;;;12.50;99.90;;;;;;5035247;28;20120;-80
2024/04/06 06:03:43;;;;;;;13.68;9.00;;;12.50;99.90;;;;;;5036702;28;20072;-81
2024/04/06 06:06:09;;;;;;;13.30;8.95;;;12.50;99.90;;;;;;5047325;28;20045;-80
2024/04/06 06:08:34;;;;;;;14.20;8.35;;;12.50;99.90;;;;;;5035601;28;20045;-80
2024/04/06 06:11:00;;;;;;;14.50;8.52;;;12.60;99.90;;;;;;5034912;28;20107;-81
2024/04/06 06:13:25;;;;;;;11.20;8.68;;;12.60;99.90;;;;;;5016384;28;20083;-82
2024/04/06 06:15:51;;;;;;;13.02;8.45;;;12.60;99.90;;;;;;5029597;28;20037;-80
2024/04/06 06:18:17;;;;;;;13.30;8.68;;;12.60;99.90;;;;;;5029691;28;20428;-80
2024/04/06 06:20:42;;;;;;;18.27;9.43;;;12.70;99.90;;;;;;5024622;28;20052;-81
2024/04/06 06:23:08;;;;;;;11.82;8.48;;;12.70;99.90;;;;;;5026519;28;20107;-80
2024/04/06 06:25:34;;;;;;;14.02;8.50;;;12.70;99.90;;;;;;5032683;28;20080;-80
2024/04/06 06:27:59;;;;;;;14.50;8.48;;;12.60;99.90;;;;;;5027682;28;20119;-79
2024/04/06 06:30:26;;;;;;;11.20;8.20;;;13.30;99.90;;;;;;5011535;28;20579;-83
2024/04/06 06:32:52;;;;;;;12.27;8.18;;;12.70;99.90;;;;;;5032185;28;20081;-81
2024/04/06 06:35:17;;;;;;;13.00;8.23;;;13.00;99.90;;;;;;5017273;28;20044;-80
2024/04/06 06:37:45;;;;;;;13.73;8.50;;;12.80;99.90;;;;;;5040919;28;20045;-81
2024/04/06 06:40:12;;;;;;;11.60;7.35;;;13.00;99.90;;;;;;5042201;28;20049;-81
2024/04/06 06:42:38;;;;;;;11.68;7.70;;;13.20;99.90;;;;;;5028744;28;20045;-81
2024/04/06 06:45:05;;;;;;;10.65;7.65;;;13.40;99.90;;;;;;5011758;28;20041;-81
2024/04/06 06:47:34;;;;;;;9.23;6.28;;;13.60;99.90;;;;;;5028632;28;20129;-81
2024/04/06 06:50:02;;;;;;;9.35;6.78;;;13.70;99.90;;;;;;5029026;28;20743;-81
2024/04/06 06:52:28;;;;;;;8.05;6.05;;;13.90;99.90;;;;;;5016975;28;20099;-83
2024/04/06 06:54:53;;;;;;;9.07;6.18;;;13.90;99.90;;;;;;5033671;28;20037;-81
2024/04/06 06:57:19;;;;;;;8.30;5.85;;;13.90;99.90;;;;;;5033464;28;20036;-80
2024/04/06 06:59:45;;;;;;;10.50;5.43;;;14.70;99.90;;;;;;5026746;28;20038;-80
2024/04/06 07:02:10;;;;;;;9.15;5.20;;;15.00;99.90;;;;;;5028119;28;20105;-81
2024/04/06 07:04:36;;;;;;;7.88;4.88;;;14.00;99.90;;;;;;5033566;28;20033;-81
2024/04/06 07:07:02;;;;;;;6.85;4.97;;;14.00;99.90;;;;;;5016354;28;20041;-81
2024/04/06 07:09:28;;;;;;;9.40;5.13;;;14.10;99.90;;;;;;5032450;28;20042;-81
2024/04/06 07:11:54;;;;;;;10.10;5.20;;;15.00;99.90;;;;;;5033694;28;20037;-81
2024/04/06 07:14:20;;;;;;;8.35;4.75;;;14.30;99.90;;;;;;5018101;28;20036;-81
2024/04/06 07:16:46;;;;;;;9.20;5.28;;;14.40;99.90;;;;;;5018181;28;20485;-80
2024/04/06 07:19:12;;;;;;;8.68;5.32;;;14.40;99.90;;;;;;5034788;28;20536;-82
2024/04/06 07:21:37;;;;;;;7.18;5.13;;;14.70;99.90;;;;;;5033637;28;20045;-81
2024/04/06 07:24:03;;;;;;;8.85;5.00;;;14.80;99.90;;;;;;5036342;28;20056;-81
2024/04/06 07:26:29;;;;;;;11.50;5.05;;;14.90;99.90;;;;;;5023391;28;20037;-80
2024/04/06 07:28:56;;;;;;;8.73;4.28;;;15.00;99.90;;;;;;5027669;28;20026;-80
2024/04/06 07:31:23;;;;;;;9.82;5.18;;;15.00;99.90;;;;;;5031274;28;20033;-81
2024/04/06 07:33:52;;;;;;;9.65;4.35;;;15.10;99.90;;;;;;5030229;28;20096;-81
2024/04/06 07:36:18;;;;;;;6.47;4.13;;;15.00;99.90;;;;;;5024926;28;20038;-80
2024/04/06 07:38:44;;;;;;;8.68;4.07;;;15.00;99.90;;;;;;5022477;28;20374;-81
2024/04/06 07:41:09;;;;;;;6.00;3.75;;;14.90;99.90;;;;;;5030516;28;20040;-81
2024/04/06 07:43:36;;;;;;;9.45;3.80;;;14.90;99.90;;;;;;5024031;28;20103;-80
2024/04/06 07:46:02;;;;;;;7.75;3.28;;;15.00;99.90;;;;;;5032414;28;20060;-80
2024/04/06 07:48:27;;;;;;;10.18;4.00;;;15.30;99.90;;;;;;5031433;28;20041;-79
2024/04/06 07:50:53;;;;;;;6.80;3.88;;;15.30;99.90;;;;;;5021904;28;20035;-81
2024/04/06 07:53:19;;;;;;;10.75;3.97;;;15.50;99.90;;;;;;5036387;28;20372;-80
2024/04/06 07:55:45;;;;;;;7.20;3.70;;;15.50;99.90;;;;;;5016721;28;20124;-80
2024/04/06 07:58:11;;;;;;;6.82;3.13;;;15.70;99.90;;;;;;5043156;28;20033;-80
2024/04/06 08:00:37;;;;;;;9.07;3.53;;;16.10;99.90;;;;;;5049574;28;20053;-83
2024/04/06 08:03:06;;;;;;;7.65;3.40;;;15.90;99.90;;;;;;5024564;28;20041;-81
2024/04/06 08:05:32;;;;;;;11.82;3.45;;;16.00;99.90;;;;;;5027013;28;20034;-80
2024/04/06 08:07:58;;;;;;;7.25;3.08;;;16.10;99.90;;;;;;5021441;28;20490;-80
2024/04/06 08:10:24;;;;;;;7.13;3.50;;;16.10;99.90;;;;;;5032978;28;20458;-81
2024/04/06 08:12:50;;;;;;;6.38;2.85;;;16.30;99.90;;;;;;5020736;28;20033;-81
2024/04/06 08:15:16;;;;;;;5.53;2.97;;;16.50;99.90;;;;;;5023572;28;20088;-80
2024/04/06 08:17:46;;;;;;;4.93;2.65;;;16.60;99.90;;;;;;5022619;28;20076;-80
2024/04/06 08:20:12;;;;;;;6.47;2.65;;;16.50;99.90;;;;;;5030709;28;20052;-80
2024/04/06 08:22:39;;;;;;;8.77;2.90;;;16.50;99.90;;;;;;5025531;28;20037;-80
2024/04/06 08:25:07;;;;;;;6.35;2.78;;;16.60;99.90;;;;;;5028277;28;20136;-81
2024/04/06 08:27:33;;;;;;;7.38;2.72;;;16.70;99.90;;;;;;5024278;28;20058;-80
2024/04/06 08:30:11;;;;;;;8.77;2.92;;;17.00;99.90;;;;;;5024154;28;20106;-79
2024/04/06 08:32:39;;;;;;;5.68;2.25;;;17.20;99.90;;;;;;5022406;28;20062;-81
2024/04/06 08:35:10;;;;;;;7.90;2.20;;;17.20;99.90;;;;;;5035522;28;20037;-80
2024/04/06 08:37:36;;;;;;;7.97;2.30;;;17.30;99.90;;;;;;5023563;28;20532;-82
2024/04/06 08:40:01;;;;;;;4.03;2.15;;;17.70;99.90;;;;;;5025027;28;20052;-80
2024/04/06 08:42:30;;;;;;;4.70;2.33;;;17.70;99.90;;;;;;5021098;28;20042;-80
2024/04/06 08:44:56;;;;;;;5.43;2.20;;;17.70;99.90;;;;;;5023961;28;20037;-81
2024/04/06 08:47:22;;;;;;;4.28;2.28;;;17.60;99.90;;;;;;5021549;28;20045;-79
2024/04/06 08:49:47;;;;;;;7.55;2.83;;;17.60;99.90;;;;;;5027240;28;20560;-80
2024/04/06 08:52:14;;;;;;;5.78;2.33;;;17.70;99.90;;;;;;5037325;28;20572;-80
2024/04/06 08:54:40;;;;;;;9.30;3.20;;;17.70;99.90;;;;;;5033591;28;20038;-80
2024/04/06 08:57:06;;;;;;;5.13;2.67;;;17.70;99.90;;;;;;5024848;28;20029;-80
2024/04/06 08:59:33;;;;;;;5.68;2.45;;;17.60;99.90;;;;;;5024980;28;20048;-80
2024/04/06 09:01:59;;;;;;;6.57;2.72;;;17.60;99.90;;;;;;5014011;28;20041;-79
2024/04/06 09:04:25;;;;;;;4.40;2.53;;;17.50;99.90;;;;;;5025557;28;20079;-81
2024/04/06 09:06:50;;;;;;;6.25;2.72;;;17.50;99.90;;;;;;5028955;28;20069;-80
2024/04/06 09:09:16;;;;;;;5.90;2.70;;;17.50;99.90;;;;;;5035114;28;20044;-80
2024/04/06 09:11:43;;;;;;;6.05;2.75;;;17.60;99.90;;;;;;5035948;28;20060;-79
2024/04/06 09:14:10;;;;;;;8.77;3.28;;;17.70;99.90;;;;;;5035474;28;20037;-78
2024/04/06 09:16:36;;;;;;;6.32;3.08;;;17.60;99.90;;;;;;5028553;28;20080;-80
2024/04/06 09:19:02;;;;;;;6.10;2.92;;;17.60;99.90;;;;;;5034667;28;20594;-80
2024/04/06 09:21:29;;;;;;;7.88;3.45;;;18.00;99.90;;;;;;5026315;28;20041;-80
2024/04/06 09:23:55;;;;;;;6.75;2.80;;;18.00;99.90;;;;;;5023065;28;20042;-80
2024/04/06 09:26:21;;;;;;;5.82;2.92;;;18.30;99.90;;;;;;5026634;28;20809;-79
2024/04/06 09:28:52;;;;;;;6.55;3.20;;;18.40;99.90;;;;;;5034635;28;20057;-80
2024/04/06 09:31:22;;;;;;;5.43;3.00;;;18.60;99.90;;;;;;5010532;28;20045;-80
2024/04/06 09:33:50;;;;;;;6.22;2.67;;;18.60;99.90;;;;;;5025628;28;20181;-81
2024/04/06 09:36:16;;;;;;;8.23;2.65;;;18.80;99.90;;;;;;5021856;28;20037;-80
2024/04/06 09:38:44;;;;;;;8.23;2.70;;;19.00;99.90;;;;;;5008265;28;20034;-80
2024/04/06 09:41:11;;;;;;;5.25;2.70;;;19.30;99.90;;;;;;5036256;28;20523;-78
2024/04/06 09:43:38;;;;;;;8.38;2.70;;;19.30;99.90;;;;;;5044127;28;20037;-81
2024/04/06 09:46:04;;;;;;;7.15;2.45;;;19.40;99.90;;;;;;5027158;28;20128;-80
2024/04/06 09:48:32;;;;;;;5.85;2.47;;;19.60;99.90;;;;;;5023224;28;20311;-80
2024/04/06 09:50:59;;;;;;;6.13;2.55;;;19.70;99.90;;;;;;5024492;28;20129;-79
2024/04/06 09:53:25;;;;;;;5.80;2.42;;;19.70;99.90;;;;;;5044247;28;20041;-81
2024/04/06 09:55:52;;;;;;;10.05;3.03;;;19.70;99.90;;;;;;5009975;28;20048;-80
2024/04/06 09:58:29;;;;;;;7.00;2.65;;;19.80;99.90;;;;;;5007210;28;20063;-80
2024/04/06 10:01:11;;;;;;;5.53;2.58;;;19.70;99.90;;;;;;5034317;28;20498;-80
2024/04/06 10:03:43;;;;;;;8.10;2.65;;;19.80;99.90;;;;;;5048448;28;20056;-81
2024/04/06 10:06:16;;;;;;;6.35;1.95;;;19.80;99.90;;;;;;5029078;28;20540;-81
2024/04/06 10:08:46;;;;;;;4.50;2.20;;;20.00;99.90;;;;;;5031876;28;20080;-81
2024/04/06 10:11:13;;;;;;;6.20;2.33;;;20.20;99.90;;;;;;5014333;28;20095;-79
2024/04/06 10:13:40;;;;;;;8.13;2.22;;;20.40;99.90;;;;;;5023911;28;20404;-79
2024/04/06 10:16:06;;;;;;;6.07;1.98;;;20.50;99.90;;;;;;5036284;28;20077;-79
2024/04/06 10:18:32;;;;;;;8.35;2.25;;;20.90;99.90;;;;;;5031736;28;20396;-79
2024/04/06 10:21:08;;;;;;;7.35;2.20;;;20.70;99.90;;;;;;5037404;28;20079;-79
2024/04/06 10:23:39;;;;;;;6.03;2.20;;;20.90;99.90;;;;;;5030972;28;20056;-81
2024/04/06 10:26:04;;;;;;;6.80;2.58;;;20.80;99.90;;;;;;5019975;28;20109;-82
2024/04/06 10:28:31;;;;;;;6.13;2.05;;;20.90;99.90;;;;;;5035142;28;20489;-79
2024/04/06 10:30:56;;;;;;;6.35;2.17;;;20.90;99.90;;;;;;5026707;28;20038;-79
2024/04/06 10:33:22;;;;;;;6.78;2.47;;;21.00;99.90;;;;;;5035779;28;20218;-80
2024/04/06 10:35:49;;;;;;;7.38;2.10;;;21.00;99.90;;;;;;5031129;28;20034;-80
2024/04/06 10:38:15;;;;;;;6.57;2.40;;;20.90;99.90;;;;;;5027759;28;20049;-80
2024/04/06 10:40:40;;;;;;;6.88;2.17;;;20.90;99.90;;;;;;5039019;28;20412;-81
2024/04/06 10:43:08;;;;;;;4.88;2.00;;;21.00;99.90;;;;;;5023996;28;20084;-79
2024/04/06 10:45:34;;;;;;;7.82;1.98;;;21.10;99.90;;;;;;5028206;28;20037;-81
2024/04/06 10:48:00;;;;;;;4.82;1.88;;;21.20;99.90;;;;;;5032374;28;20524;-81
2024/04/06 10:50:27;;;;;;;5.65;2.00;;;21.40;99.90;;;;;;5010910;28;20053;-80
2024/04/06 10:52:53;;;;;;;6.10;1.90;;;21.20;99.90;;;;;;5029228;28;20052;-79
2024/04/06 10:55:21;;;;;;;6.10;2.08;;;21.30;99.90;;;;;;5035348;28;20041;-79
2024/04/06 10:57:47;;;;;;;6.43;2.05;;;21.40;99.90;;;;;;5033821;28;20034;-81
2024/04/06 11:00:15;;;;;;;4.75;1.45;;;21.30;99.90;;;;;;5030927;28;20049;-80
2024/04/06 11:02:42;;;;;;;6.63;2.10;;;21.30;99.90;;;;;;5036406;28;20124;-81
2024/04/06 11:05:11;;;;;;;7.00;1.95;;;21.30;99.90;;;;;;5021269;28;20083;-80
2024/04/06 11:07:38;;;;;;;7.43;2.20;;;21.40;99.90;;;;;;5036261;28;20092;-79
2024/04/06 11:10:05;;;;;;;4.07;2.00;;;21.40;99.90;;;;;;5035379;28;20333;-81
2024/04/06 11:12:30;;;;;;;9.27;1.98;;;21.40;99.90;;;;;;5036224;28;20068;-81
2024/04/06 11:15:00;;;;;;;8.85;2.25;;;21.40;99.90;;;;;;5031954;28;20037;-79
2024/04/06 11:17:28;;;;;;;4.35;1.98;;;21.50;99.90;;;;;;5032913;28;20123;-81
2024/04/06 11:19:58;;;;;;;4.40;1.88;;;21.40;99.90;;;;;;5034513;28;20451;-79
2024/04/06 11:22:24;;;;;;;4.82;1.70;;;21.50;99.90;;;;;;5049502;28;20071;-79
2024/04/06 11:24:50;;;;;;;3.93;1.83;;;21.70;99.90;;;;;;4997654;28;1073579;-80
2024/04/06 11:27:21;;;;;;;8.40;2.45;;;21.60;99.90;;;;;;5035840;28;20045;-81
2024/04/06 11:29:49;;;;;;;3.47;1.70;;;21.60;99.90;;;;;;5033766;28;20037;-79
2024/04/06 11:32:19;;;;;;;6.00;2.10;;;21.50;99.90;;;;;;5033381;28;21639;-78
2024/04/06 11:34:48;;;;;;;3.03;1.63;;;21.50;99.90;;;;;;5030231;28;20044;-79
2024/04/06 11:37:15;;;;;;;4.68;2.35;;;21.50;99.90;;;;;;5034230;28;20085;-80
2024/04/06 11:39:41;;;;;;;5.13;1.92;;;21.60;99.90;;;;;;5033915;28;20831;-80
2024/04/06 11:42:07;;;;;;;4.43;1.92;;;21.50;99.90;;;;;;5033626;28;20051;-81
2024/04/06 11:44:32;;;;;;;6.45;2.08;;;21.60;99.90;;;;;;5036757;28;20087;-80
2024/04/06 11:46:58;;;;;;;4.43;1.90;;;21.60;99.90;;;;;;5016490;28;20037;-81
2024/04/06 11:49:24;;;;;;;5.43;2.00;;;21.60;99.90;;;;;;5029310;28;20048;-80
2024/04/06 11:51:49;;;;;;;7.55;2.30;;;21.60;99.90;;;;;;5036677;28;20033;-79
2024/04/06 11:54:15;;;;;;;9.02;2.17;;;21.70;99.90;;;;;;5037656;28;20507;-79
2024/04/06 11:56:41;;;;;;;6.78;2.42;;;21.80;99.90;;;;;;5035764;28;20050;-80
2024/04/06 11:59:07;;;;;;;6.82;2.40;;;21.90;99.90;;;;;;5034841;28;20560;-80
2024/04/06 12:01:33;;;;;;;6.20;2.53;;;21.90;99.90;;;;;;5016798;28;20051;-80
2024/04/06 12:03:58;;;;;;;5.82;2.13;;;21.90;99.90;;;;;;5033104;28;20081;-81
2024/04/06 12:06:24;;;;;;;4.35;1.80;;;21.80;99.90;;;;;;5033865;28;20103;-80
2024/04/06 12:08:52;;;;;;;5.80;2.40;;;21.90;99.90;;;;;;5035053;28;20033;-80
2024/04/06 12:11:18;;;;;;;5.95;1.73;;;22.00;99.90;;;;;;5033413;28;20054;-80
2024/04/06 12:13:43;;;;;;;8.68;2.17;;;21.90;99.90;;;;;;5033137;28;20041;-80
2024/04/06 12:16:09;;;;;;;6.07;2.05;;;22.00;99.90;;;;;;5032704;28;20036;-79
2024/04/06 12:18:35;;;;;;;6.72;2.30;;;22.00;99.90;;;;;;5034369;28;20129;-80
2024/04/06 12:21:00;;;;;;;6.55;2.30;;;22.10;99.90;;;;;;5051209;28;20049;-80
2024/04/06 12:23:27;;;;;;;5.65;1.95;;;22.20;99.90;;;;;;5017681;28;20091;-80
2024/04/06 12:25:53;;;;;;;9.55;1.90;;;22.20;99.90;;;;;;5031140;28;20493;-79
2024/04/06 12:28:18;;;;;;;6.45;2.08;;;22.20;99.90;;;;;;5050228;28;20045;-80
2024/04/06 12:30:44;;;;;;;4.93;2.03;;;22.40;99.90;;;;;;5019500;28;20042;-80
2024/04/06 12:33:09;;;;;;;6.05;2.28;;;22.50;99.90;;;;;;5034622;28;20489;-80
2024/04/06 12:35:35;;;;;;;4.63;2.03;;;22.60;99.90;;;;;;5035098;28;20052;-80